Terminal Aerodrome Forecast
Issued by NWS

Home | Current Version | Previous Version | Text Only | Print | Product List | Glossary On
Versions: 1 2 3 4 5 6 7 8 9 10 11 12 13 14 15 16 17 18
000
FTUS43 KAPX 290527
TAFPLN
TAF
KPLN 290527Z 2906/3006 18007KT P6SM BKN250 WS010/21038KT
     FM291300 19013G24KT P6SM OVC120
     FM291900 19020G30KT 1/2SM SNRA SCT008 OVC015
     FM300000 26015G25KT 4SM -SN OVC018=

USA.gov is the U.S. government's official web portal to all federal, state and local government web resources and services.